createdAt,value
2023-05-21T00:00:25.361Z,100.00
2023-05-21T00:03:30.436Z,100.00
2023-05-21T00:06:33.177Z,100.00
2023-05-21T00:09:38.176Z,100.00
2023-05-21T00:12:41.710Z,100.00
2023-05-21T00:15:44.639Z,100.00
2023-05-21T00:18:47.545Z,100.00
2023-05-21T00:21:50.376Z,100.00
2023-05-21T00:24:52.800Z,100.00
2023-05-21T00:27:55.899Z,100.00
2023-05-21T00:30:58.236Z,100.00
2023-05-21T00:34:00.877Z,100.00
2023-05-21T00:37:03.859Z,100.00
2023-05-21T00:40:08.504Z,100.00
2023-05-21T00:43:10.940Z,100.00
2023-05-21T00:46:16.553Z,100.00
2023-05-21T00:49:19.727Z,100.00
2023-05-21T00:52:23.204Z,100.00
2023-05-21T00:55:25.961Z,100.00
2023-05-21T00:58:29.211Z,100.00
2023-05-21T01:01:34.047Z,100.00
2023-05-21T01:04:37.174Z,100.00
2023-05-21T01:07:41.550Z,100.00
2023-05-21T01:10:44.679Z,100.00
2023-05-21T01:13:50.230Z,100.00
2023-05-21T01:16:53.701Z,100.00
2023-05-21T01:19:57.579Z,100.00
2023-05-21T01:23:00.742Z,100.00
2023-05-21T01:26:03.187Z,100.00
2023-05-21T01:29:13.398Z,100.00
2023-05-21T01:32:28.113Z,100.00
2023-05-21T01:35:36.234Z,100.00
2023-05-21T01:38:43.050Z,100.00
2023-05-21T01:41:46.265Z,100.00
2023-05-21T01:44:50.167Z,100.00
2023-05-21T01:47:54.693Z,100.00
2023-05-21T01:50:58.779Z,100.00
2023-05-21T01:54:01.666Z,100.00
2023-05-21T01:57:04.100Z,100.00
2023-05-21T02:00:07.565Z,100.00
2023-05-21T02:03:18.468Z,100.00
2023-05-21T02:06:21.480Z,100.00
2023-05-21T02:09:23.790Z,100.00
2023-05-21T02:12:28.288Z,100.00
2023-05-21T02:15:30.809Z,100.00
2023-05-21T02:18:34.217Z,100.00
2023-05-21T02:21:37.352Z,100.00
2023-05-21T02:24:39.761Z,100.00
2023-05-21T02:27:42.971Z,100.00
2023-05-21T02:30:45.326Z,100.00
2023-05-21T02:33:48.502Z,100.00
2023-05-21T02:36:53.775Z,100.00
2023-05-21T02:39:56.657Z,100.00
2023-05-21T02:42:59.536Z,100.00
2023-05-21T02:46:02.305Z,100.00
2023-05-21T02:49:05.218Z,100.00
2023-05-21T02:52:07.810Z,100.00
2023-05-21T02:55:10.177Z,100.00
2023-05-21T02:58:13.638Z,100.00
2023-05-21T03:01:16.965Z,100.00
2023-05-21T03:04:21.907Z,100.00
2023-05-21T03:07:24.508Z,100.00
2023-05-21T03:10:27.313Z,100.00
2023-05-21T03:13:29.713Z,100.00
2023-05-21T03:16:34.882Z,100.00
2023-05-21T03:19:37.416Z,100.00
2023-05-21T03:22:40.089Z,100.00
2023-05-21T03:25:42.794Z,100.00
2023-05-21T03:28:47.270Z,100.00
2023-05-21T03:31:51.437Z,100.00
2023-05-21T03:34:54.166Z,100.00
2023-05-21T03:37:56.548Z,100.00
2023-05-21T03:40:59.171Z,100.00
2023-05-21T03:44:02.472Z,100.00
2023-05-21T03:47:05.986Z,100.00
2023-05-21T03:50:09.431Z,100.00
2023-05-21T03:53:12.594Z,100.00
2023-05-21T03:56:15.386Z,100.00
2023-05-21T03:59:18.056Z,100.00
2023-05-21T04:02:21.900Z,100.00
2023-05-21T04:05:24.837Z,100.00
2023-05-21T04:08:27.348Z,100.00
2023-05-21T04:11:29.962Z,100.00
2023-05-21T04:14:32.343Z,100.00
2023-05-21T04:17:35.413Z,100.00
2023-05-21T04:20:37.788Z,100.00
2023-05-21T04:23:40.901Z,100.00
2023-05-21T04:26:44.629Z,100.00
2023-05-21T04:29:50.613Z,98.38
2023-05-21T04:32:54.882Z,97.09
2023-05-21T04:35:57.945Z,97.14
2023-05-21T04:39:01.289Z,97.10
2023-05-21T04:42:04.216Z,96.65
2023-05-21T04:45:06.948Z,96.96
2023-05-21T04:48:10.171Z,95.48
2023-05-21T04:51:12.583Z,98.21
2023-05-21T04:54:15.605Z,94.05
2023-05-21T04:57:18.376Z,94.29
2023-05-21T05:00:21.621Z,92.86
2023-05-21T05:03:24.695Z,95.84
2023-05-21T05:06:27.458Z,97.43
2023-05-21T05:09:31.748Z,95.60
2023-05-21T05:12:34.452Z,94.25
2023-05-21T05:15:37.039Z,92.32
2023-05-21T05:18:40.164Z,88.80
2023-05-21T05:21:42.593Z,88.99
2023-05-21T05:24:45.191Z,79.34
2023-05-21T05:27:47.782Z,77.47
2023-05-21T05:30:50.514Z,77.31
2023-05-21T05:33:54.236Z,72.46
2023-05-21T05:36:58.127Z,71.74
2023-05-21T05:40:00.647Z,70.78
2023-05-21T05:43:03.287Z,67.66
2023-05-21T05:46:05.912Z,65.09
2023-05-21T05:49:08.719Z,66.36
2023-05-21T05:52:11.289Z,64.11
2023-05-21T05:55:14.070Z,63.90
2023-05-21T05:58:16.604Z,62.30
2023-05-21T06:01:22.811Z,63.97
2023-05-21T06:04:26.065Z,62.18
2023-05-21T06:07:28.496Z,63.39
2023-05-21T06:10:32.758Z,61.59
2023-05-21T06:13:35.391Z,60.86
2023-05-21T06:16:38.406Z,61.25
2023-05-21T06:19:40.718Z,61.37
2023-05-21T06:22:43.389Z,61.57
2023-05-21T06:25:46.093Z,60.94
2023-05-21T06:28:49.414Z,59.03
2023-05-21T06:31:51.836Z,57.70
2023-05-21T06:34:54.427Z,58.52
2023-05-21T06:37:56.901Z,57.16
2023-05-21T06:41:00.156Z,57.53
2023-05-21T06:44:05.475Z,57.56
2023-05-21T06:47:12.170Z,57.14
2023-05-21T06:50:14.854Z,52.60
2023-05-21T06:53:17.512Z,44.30
2023-05-21T06:56:20.181Z,35.07
2023-05-21T06:59:22.800Z,29.85
2023-05-21T07:02:25.938Z,27.36
2023-05-21T07:05:28.975Z,26.22
2023-05-21T07:08:31.409Z,24.38
2023-05-21T07:11:34.242Z,23.12
2023-05-21T07:14:37.322Z,23.38
2023-05-21T07:17:40.018Z,23.74
2023-05-21T07:20:43.538Z,22.17
2023-05-21T07:23:46.826Z,22.59
2023-05-21T07:26:49.356Z,23.15
2023-05-21T07:29:52.432Z,21.68
2023-05-21T07:32:56.782Z,21.26
2023-05-21T07:35:59.621Z,21.34
2023-05-21T07:39:02.706Z,21.56
2023-05-21T07:42:05.688Z,22.74
2023-05-21T07:45:10.529Z,21.21
2023-05-21T07:48:14.302Z,21.36
2023-05-21T07:51:18.284Z,20.44
2023-05-21T07:54:21.685Z,20.83
2023-05-21T07:57:24.139Z,22.57
2023-05-21T08:00:27.262Z,21.82
2023-05-21T08:03:33.022Z,21.33
2023-05-21T08:06:38.210Z,22.31
2023-05-21T08:09:41.261Z,19.85
2023-05-21T08:12:44.238Z,20.20
2023-05-21T08:15:49.510Z,21.46
2023-05-21T08:18:53.409Z,21.46
2023-05-21T08:21:59.069Z,20.13
2023-05-21T08:25:01.651Z,21.28
2023-05-21T08:28:04.819Z,20.46
2023-05-21T08:31:07.309Z,21.32
2023-05-21T08:34:10.582Z,20.97
2023-05-21T08:37:13.538Z,23.44
2023-05-21T08:40:19.557Z,20.58
2023-05-21T08:43:22.364Z,22.33
2023-05-21T08:46:25.997Z,21.12
2023-05-21T08:49:30.917Z,20.74
2023-05-21T08:52:33.642Z,22.10
2023-05-21T08:55:36.791Z,20.79
2023-05-21T08:58:42.634Z,20.71
2023-05-21T09:01:47.017Z,21.63
2023-05-21T09:04:51.400Z,22.98
2023-05-21T09:08:03.514Z,23.73
2023-05-21T09:11:06.304Z,22.39
2023-05-21T09:14:10.881Z,24.38
2023-05-21T09:17:15.004Z,24.54
2023-05-21T09:20:18.278Z,25.60
2023-05-21T09:23:21.498Z,27.25
2023-05-21T09:26:24.566Z,29.70
2023-05-21T09:29:29.803Z,30.33
2023-05-21T09:32:32.315Z,31.56
2023-05-21T09:35:38.038Z,32.09
2023-05-21T09:38:41.451Z,32.99
2023-05-21T09:41:44.248Z,35.18
2023-05-21T09:44:47.336Z,33.73
2023-05-21T09:47:51.045Z,32.26
2023-05-21T09:50:53.751Z,34.43
2023-05-21T09:53:59.520Z,33.46
2023-05-21T09:57:05.251Z,34.17
2023-05-21T10:00:09.033Z,34.87
2023-05-21T10:03:17.135Z,34.82
2023-05-21T10:06:20.452Z,32.89
2023-05-21T10:09:23.662Z,32.69
2023-05-21T10:12:27.602Z,32.30
2023-05-21T10:15:33.076Z,33.03
2023-05-21T10:18:37.808Z,33.68
2023-05-21T10:21:41.209Z,33.05
2023-05-21T10:24:44.217Z,32.89
2023-05-21T10:27:47.147Z,33.06
2023-05-21T10:30:49.852Z,33.21
2023-05-21T10:33:56.511Z,33.87
2023-05-21T10:37:01.581Z,34.10
2023-05-21T10:40:04.624Z,33.10
2023-05-21T10:43:34.594Z,32.22
2023-05-21T10:46:53.341Z,32.33
2023-05-21T10:49:59.008Z,32.51
2023-05-21T10:53:24.565Z,33.53
2023-05-21T10:56:27.285Z,32.98
2023-05-21T10:59:32.602Z,32.68
2023-05-21T11:02:35.415Z,33.43
2023-05-21T11:05:41.702Z,32.65
2023-05-21T11:08:47.963Z,34.76
2023-05-21T11:11:51.755Z,34.29
2023-05-21T11:14:56.904Z,35.70
2023-05-21T11:17:59.233Z,36.28
2023-05-21T11:21:07.923Z,37.29
2023-05-21T11:24:18.445Z,37.48
2023-05-21T11:27:50.375Z,37.06
2023-05-21T11:31:11.514Z,36.63
2023-05-21T11:34:14.358Z,36.29
2023-05-21T11:37:36.904Z,34.98
2023-05-21T11:40:50.168Z,34.67
2023-05-21T11:44:00.740Z,34.84
2023-05-21T11:47:04.562Z,31.78
2023-05-21T11:50:12.173Z,31.65
2023-05-21T11:53:15.489Z,33.14
2023-05-21T11:56:18.372Z,33.55
2023-05-21T11:59:21.029Z,34.36
2023-05-21T12:02:23.367Z,34.52
2023-05-21T12:05:27.211Z,32.74
2023-05-21T12:08:30.525Z,34.18
2023-05-21T12:11:33.278Z,34.11
2023-05-21T12:14:36.368Z,34.76
2023-05-21T12:17:39.286Z,34.60
2023-05-21T12:20:41.654Z,32.42
2023-05-21T12:23:44.304Z,32.42
2023-05-21T12:26:47.163Z,33.75
2023-05-21T12:29:51.715Z,34.26
2023-05-21T12:32:54.154Z,33.94
2023-05-21T12:35:57.032Z,34.10
2023-05-21T12:38:59.817Z,34.41
2023-05-21T12:42:03.060Z,34.89
2023-05-21T12:45:08.842Z,32.70
2023-05-21T12:48:12.603Z,32.46
2023-05-21T12:51:15.128Z,32.40
2023-05-21T12:54:17.760Z,32.11
2023-05-21T12:57:21.258Z,31.41
2023-05-21T13:00:24.223Z,32.15
2023-05-21T13:03:26.535Z,33.04
2023-05-21T13:06:29.143Z,33.76
2023-05-21T13:09:31.515Z,33.22
2023-05-21T13:12:34.876Z,33.76
2023-05-21T13:15:37.300Z,33.85
2023-05-21T13:18:39.899Z,32.54
2023-05-21T13:21:42.246Z,32.07
2023-05-21T13:24:44.930Z,32.26
2023-05-21T13:27:48.627Z,30.66
2023-05-21T13:30:52.945Z,31.94
2023-05-21T13:33:55.378Z,32.47
2023-05-21T13:36:58.243Z,31.57
2023-05-21T13:40:00.954Z,31.38
2023-05-21T13:43:03.725Z,31.96
2023-05-21T13:46:06.073Z,32.89
2023-05-21T13:49:08.697Z,33.93
2023-05-21T13:52:12.042Z,33.98
2023-05-21T13:55:16.091Z,34.67
2023-05-21T13:58:18.578Z,34.11
2023-05-21T14:01:21.285Z,33.40
2023-05-21T14:04:24.091Z,34.05
2023-05-21T14:07:26.979Z,35.03
2023-05-21T14:10:29.583Z,34.57
2023-05-21T14:13:32.544Z,34.80
2023-05-21T14:16:35.226Z,34.61
2023-05-21T14:19:37.651Z,33.50
2023-05-21T14:22:40.530Z,33.03
2023-05-21T14:25:42.894Z,33.64
2023-05-21T14:28:45.653Z,34.59
2023-05-21T14:31:48.512Z,35.04
2023-05-21T14:34:51.268Z,35.07
2023-05-21T14:37:54.267Z,35.00
2023-05-21T14:40:56.914Z,34.79
2023-05-21T14:43:59.238Z,35.23
2023-05-21T14:47:01.963Z,35.02
2023-05-21T14:50:04.350Z,34.30
2023-05-21T14:53:11.112Z,35.10
2023-05-21T14:56:13.505Z,35.51
2023-05-21T14:59:16.183Z,36.19
2023-05-21T15:02:18.641Z,35.89
2023-05-21T15:05:21.454Z,37.26
2023-05-21T15:08:23.980Z,36.66
2023-05-21T15:11:26.649Z,36.48
2023-05-21T15:14:29.125Z,36.45
2023-05-21T15:17:33.177Z,36.50
2023-05-21T15:20:35.715Z,37.31
2023-05-21T15:23:38.282Z,37.02
2023-05-21T15:26:40.730Z,37.33
2023-05-21T15:29:45.604Z,37.29
2023-05-21T15:32:47.957Z,37.36
2023-05-21T15:35:50.677Z,37.41
2023-05-21T15:38:53.135Z,37.42
2023-05-21T15:41:56.058Z,36.81
2023-05-21T15:44:58.546Z,36.81
2023-05-21T15:48:01.307Z,37.67
2023-05-21T15:51:03.822Z,37.11
2023-05-21T15:54:06.524Z,38.01
2023-05-21T15:57:08.983Z,38.08
2023-05-21T16:00:12.034Z,37.90
2023-05-21T16:03:14.834Z,37.52
2023-05-21T16:06:17.358Z,37.52
2023-05-21T16:09:19.966Z,37.51
2023-05-21T16:12:22.269Z,37.42
2023-05-21T16:15:24.906Z,37.87
2023-05-21T16:18:27.340Z,37.71
2023-05-21T16:21:29.924Z,37.96
2023-05-21T16:24:32.253Z,37.07
2023-05-21T16:27:36.295Z,36.61
2023-05-21T16:30:38.680Z,37.68
2023-05-21T16:33:41.455Z,37.97
2023-05-21T16:36:43.820Z,38.14
2023-05-21T16:39:46.496Z,38.71
2023-05-21T16:42:48.903Z,39.33
2023-05-21T16:45:53.385Z,39.33
2023-05-21T16:48:55.890Z,40.87
2023-05-21T16:51:58.587Z,40.78
2023-05-21T16:55:01.191Z,40.55
2023-05-21T16:58:04.853Z,41.34
2023-05-21T17:01:07.206Z,41.00
2023-05-21T17:04:09.943Z,41.46
2023-05-21T17:07:12.334Z,42.54
2023-05-21T17:10:15.050Z,41.80
2023-05-21T17:13:22.093Z,42.35
2023-05-21T17:16:25.295Z,43.05
2023-05-21T17:19:27.927Z,42.66
2023-05-21T17:22:30.816Z,44.12
2023-05-21T17:25:34.575Z,43.58
2023-05-21T17:28:37.494Z,44.26
2023-05-21T17:31:39.954Z,45.02
2023-05-21T17:34:43.312Z,45.08
2023-05-21T17:37:45.622Z,45.14
2023-05-21T17:40:50.060Z,45.29
2023-05-21T17:43:53.457Z,46.41
2023-05-21T17:46:56.559Z,47.29
2023-05-21T17:49:59.229Z,47.84
2023-05-21T17:53:01.836Z,49.07
2023-05-21T17:56:04.339Z,50.70
2023-05-21T17:59:07.687Z,51.73
2023-05-21T18:02:10.202Z,53.88
2023-05-21T18:05:13.046Z,54.35
2023-05-21T18:08:15.550Z,55.08
2023-05-21T18:11:18.242Z,55.57
2023-05-21T18:14:20.581Z,57.34
2023-05-21T18:17:23.386Z,57.77
2023-05-21T18:20:26.006Z,58.31
2023-05-21T18:23:30.568Z,60.19
2023-05-21T18:26:33.131Z,60.03
2023-05-21T18:29:36.803Z,61.05
2023-05-21T18:32:39.687Z,61.64
2023-05-21T18:35:44.402Z,63.00
2023-05-21T18:38:47.340Z,63.21
2023-05-21T18:42:01.587Z,64.04
2023-05-21T18:45:09.226Z,64.81
2023-05-21T18:48:12.554Z,66.17
2023-05-21T18:51:15.428Z,66.60
2023-05-21T18:54:18.464Z,67.20
2023-05-21T18:57:21.258Z,68.04
2023-05-21T19:00:24.297Z,68.38
2023-05-21T19:03:27.922Z,68.66
2023-05-21T19:06:31.429Z,68.95
2023-05-21T19:09:34.093Z,69.95
2023-05-21T19:12:37.297Z,71.07
2023-05-21T19:15:40.227Z,72.28
2023-05-21T19:18:43.847Z,73.49
2023-05-21T19:21:46.760Z,74.53
2023-05-21T19:24:50.094Z,75.11
2023-05-21T19:27:52.967Z,76.48
2023-05-21T19:30:56.113Z,78.51
2023-05-21T19:33:58.940Z,79.57
2023-05-21T19:37:02.462Z,80.39
2023-05-21T19:40:06.142Z,80.88
2023-05-21T19:43:09.779Z,81.02
2023-05-21T19:46:12.709Z,80.81
2023-05-21T19:49:15.978Z,80.83
2023-05-21T19:52:18.652Z,81.47
2023-05-21T19:55:25.034Z,81.54
2023-05-21T19:58:30.351Z,82.22
2023-05-21T20:01:35.610Z,82.66
2023-05-21T20:04:38.610Z,83.06
2023-05-21T20:07:41.997Z,83.52
2023-05-21T20:10:44.905Z,84.34
2023-05-21T20:13:50.584Z,84.75
2023-05-21T20:16:53.612Z,85.48
2023-05-21T20:19:57.471Z,86.46
2023-05-21T20:23:03.283Z,88.01
2023-05-21T20:26:07.162Z,88.84
2023-05-21T20:29:09.841Z,89.79
2023-05-21T20:32:12.705Z,90.74
2023-05-21T20:35:15.342Z,91.93
2023-05-21T20:38:17.789Z,92.46
2023-05-21T20:41:20.381Z,93.13
2023-05-21T20:44:22.771Z,93.33
2023-05-21T20:47:25.494Z,93.75
2023-05-21T20:50:28.829Z,93.86
2023-05-21T20:53:31.525Z,93.39
2023-05-21T20:56:42.132Z,93.34
2023-05-21T20:59:45.471Z,93.62
2023-05-21T21:02:47.842Z,92.92
2023-05-21T21:05:50.712Z,92.37
2023-05-21T21:08:55.486Z,92.52
2023-05-21T21:12:06.232Z,92.21
2023-05-21T21:15:14.277Z,91.66
2023-05-21T21:18:17.556Z,91.27
2023-05-21T21:21:19.963Z,91.77
2023-05-21T21:24:22.589Z,90.82
2023-05-21T21:27:25.159Z,90.02
2023-05-21T21:30:27.781Z,89.86
2023-05-21T21:33:30.130Z,88.99
2023-05-21T21:36:32.826Z,88.93
2023-05-21T21:39:35.163Z,88.62
2023-05-21T21:42:37.841Z,87.67
2023-05-21T21:45:40.192Z,87.25
2023-05-21T21:48:42.948Z,87.56
2023-05-21T21:51:45.831Z,87.62
2023-05-21T21:54:48.415Z,88.64
2023-05-21T21:57:50.766Z,89.17
2023-05-21T22:00:53.689Z,89.46
2023-05-21T22:03:56.541Z,89.78
2023-05-21T22:06:59.049Z,89.69
2023-05-21T22:10:01.817Z,91.41
2023-05-21T22:13:04.769Z,93.08
2023-05-21T22:16:07.691Z,93.06
2023-05-21T22:19:12.861Z,94.48
2023-05-21T22:22:15.865Z,96.00
2023-05-21T22:25:18.357Z,95.87
2023-05-21T22:28:22.467Z,95.94
2023-05-21T22:31:25.147Z,96.34
2023-05-21T22:34:27.797Z,96.89
2023-05-21T22:37:30.217Z,97.80
2023-05-21T22:40:32.901Z,98.75
2023-05-21T22:43:35.604Z,99.93
2023-05-21T22:46:38.975Z,100.00
2023-05-21T22:49:41.323Z,100.00
2023-05-21T22:52:43.989Z,100.00
2023-05-21T22:55:46.388Z,100.00
2023-05-21T22:58:49.170Z,100.00
2023-05-21T23:01:53.933Z,100.00
2023-05-21T23:04:58.125Z,100.00
2023-05-21T23:08:00.679Z,100.00
2023-05-21T23:11:03.267Z,100.00
2023-05-21T23:14:05.658Z,100.00
2023-05-21T23:17:08.313Z,100.00
2023-05-21T23:20:10.752Z,100.00
2023-05-21T23:23:13.374Z,100.00
2023-05-21T23:26:16.015Z,100.00
2023-05-21T23:29:19.038Z,100.00
2023-05-21T23:32:21.339Z,100.00
2023-05-21T23:35:23.966Z,100.00
2023-05-21T23:38:26.354Z,100.00
2023-05-21T23:41:29.084Z,100.00
2023-05-21T23:44:31.474Z,100.00
2023-05-21T23:47:34.138Z,100.00
2023-05-21T23:50:36.696Z,100.00
2023-05-21T23:53:39.501Z,100.00
2023-05-21T23:56:41.817Z,100.00
2023-05-21T23:59:44.489Z,100.00
